Weather observations for the past three days for
Kaunakakai, Molokai Airport
Imperial (Metric)
Date Time (hst) Wind (mph) Vis. (mi.) Weather Sky Cond. Temperature (ºF) Relative Humidity Wind Chill (°F) Heat Index (°F) Pressure Precipitation (in)
Air Dwpt 6 hour altimeter (in) sea level (mb) 1 hr 3 hr 6 hr
Max. Min.
05 04:54 Calm 10.00 A Few Clouds FEW050 66 64 93% 29.99 1015.8
05 03:54 Calm 10.00 Fair CLR 66.9 64 91% 29.99 1015.6
05 02:54 NE 5 10.00 Fair CLR 69.1 66 90% 29.99 1015.6
05 01:54 NE 6 10.00 Partly Cloudy SCT075 71.1 66 73.9 70 84% 30.01 1016.3
05 00:54 NE 5 10.00 Mostly Cloudy BKN075 71.1 64.9 81% 30.03 1017.0
04 23:54 NE 12 G 22 10.00 Overcast OVC075 72 64.9 79% 30.04 1017.5
04 22:54 NE 14 G 25 10.00 Partly Cloudy SCT060 SCT080 72 66 82% 30.06 1017.9
04 21:54 E 9 10.00 Mostly Cloudy FEW044 BKN055 73 64.9 76% 30.07 1018.4
04 20:54 NE 10 G 21 10.00 Partly Cloudy SCT075 73 64.9 76% 30.06 1018.1
04 19:54 NE 9 10.00 Overcast BKN044 OVC070 73.9 64.9 82.9 73.9 74% 30.05 1017.8
04 18:54 NE 7 G 21 10.00 A Few Clouds FEW032 73.9 64.9 74% 30.03 1017.3
04 17:54 NE 12 G 23 10.00 Fair CLR 77 66 69% 79 30.03 1017.0
04 16:54 NE 15 G 25 10.00 A Few Clouds FEW034 78.1 64 62% 80 30.02 1016.8
04 15:54 NE 14 G 23 10.00 Partly Cloudy FEW035 SCT070 80.1 64.9 60% 82 30.03 1017.1
04 14:54 NE 12 G 20 10.00 Overcast OVC055 81 64.9 58% 83 30.04 1017.5
04 13:54 NE 10 G 25 10.00 Mostly Cloudy BKN050 79 66.9 84 73.9 67% 81 30.05 1017.7
04 12:54 NE 13 G 25 10.00 Fair CLR 81 66.9 62% 83 30.06 1018.0
04 11:54 NE 16 G 28 10.00 Fair CLR 79 66.9 67% 81 30.07 1018.5
04 10:54 NE 15 G 25 10.00 Fair CLR 80.1 64.9 60% 82 30.08 1018.9
04 09:54 NE 15 G 26 10.00 Fair CLR 79 64.9 62% 81 30.09 1019.0
04 08:54 E 12 G 24 10.00 Fair CLR 77 66.9 71% 79 30.1 1019.5
04 07:54 NE 9 G 22 10.00 Partly Cloudy FEW012 SCT018 73.9 66.9 73.9 69.1 79% 30.09 1019.1
04 06:54 NE 8 10.00 Partly Cloudy SCT016 70 66 87% 30.09 1019.3
04 05:54 NE 10 10.00 Fair CLR 70 64.9 84% 30.06 1018.3
04 04:54 NE 8 10.00 Fair CLR 69.1 63 81% 30.05 1017.8
04 03:54 NE 9 G 17 10.00 Fair CLR 70 66 87% 30.04 1017.5
04 02:54 NE 13 G 23 10.00 Fair CLR 70 64.9 84% 30.04 1017.6
04 01:54 NE 8 G 18 10.00 Partly Cloudy SCT020 SCT070 71.1 66 72 70 84% 30.06 1018.0
04 00:54 E 9 10.00 Fair CLR 71.1 64.9 81% 30.08 1018.6
03 23:54 Vrbl 7 10.00 Overcast FEW018 OVC070 72 66 82% 30.09 1019.0
03 22:54 E 13 G 22 10.00 Partly Cloudy SCT065 71.1 66 84% 30.1 1019.3
03 21:54 NE 13 G 23 10.00 Partly Cloudy SCT065 71.1 66 84% 30.09 1019.0
03 20:54 NE 14 G 23 10.00 Mostly Cloudy FEW050 BKN070 70 66 87% 30.08 1019.0
03 19:54 NE 12 G 29 10.00 Mostly Cloudy BKN070 71.1 66 80.1 70 84% 30.06 1018.2
03 18:54 NE 13 G 31 10.00 Partly Cloudy FEW011 SCT070 71.1 66 84% 30.04 1017.6
03 17:54 NE 17 G 35 10.00 Partly Cloudy FEW016 SCT070 73.9 66 76% 30.02 1016.7
03 16:54 NE 16 G 31 10.00 Partly Cloudy SCT065 77 66 69% 79 30.01 1016.6
03 15:54 NE 16 G 29 10.00 Overcast FEW045 OVC060 77 66.9 71% 79 30.02 1016.6
03 14:54 NE 14 G 28 10.00 Mostly Cloudy SCT060 BKN070 78.1 68 71% 80 30.02 1016.6
03 13:54 NE 12 G 29 10.00 Partly Cloudy SCT060 80.1 68 81 75.9 67% 83 30.02 1016.6
03 12:54 NE 16 G 30 10.00 Fair CLR 79 68 69% 81 30.03 1016.9
03 11:54 NE 18 G 30 10.00 Fair CLR 80.1 66.9 64% 82 30.04 1017.2
03 10:54 NE 17 G 28 10.00 Fair CLR 79 66.9 67% 81 30.06 1017.9
03 09:54 NE 14 G 24 10.00 Fair CLR 78.1 66.9 69% 80 30.06 1018.1
03 08:54 E 13 G 21 10.00 Fair CLR 78.1 66.9 69% 80 30.06 1018.2
03 07:54 NE 8 10.00 Fair CLR 77 64.9 77 69.1 66% 79 30.06 1018.0
03 06:54 NE 6 10.00 Fair CLR 72 64.9 79% 30.04 1017.5
03 05:54 E 8 10.00 Fair CLR 69.1 64 84% 30.02 1016.8
03 04:54 NE 5 10.00 Fair CLR 69.1 63 81% 30.01 1016.6
03 03:54 NE 7 10.00 Fair CLR 69.1 64.9 87% 30.01 1016.6
03 02:54 NE 9 10.00 Fair CLR 71.1 64.9 81% 30.02 1016.6
03 01:54 NE 9 10.00 Fair CLR 71.1 64 72 70 79% 30.03 1017.1
03 00:54 E 10 G 17 10.00 Fair CLR 71.1 64 79% 30.05 1017.7
02 23:54 E 7 10.00 Fair CLR 70 64 82% 30.05 1017.9
02 22:54 E 12 10.00 Fair CLR 72 66 82% 30.06 1018.1
02 21:54 NE 13 10.00 Fair CLR 72 64.9 79% 30.04 1017.4
02 20:54 NE 9 G 21 10.00 Fair CLR 72 64.9 79% 30.02 1016.7
02 19:54 NE 13 G 21 10.00 Fair CLR 72 64.9 82.9 72 79% 29.99 1015.7
02 18:54 NE 12 G 21 10.00 Partly Cloudy SCT050 73 64.9 76% 29.98 1015.3
02 17:54 NE 12 G 23 10.00 Fair CLR 75.9 64.9 69% 78 29.96 1014.7
02 16:54 NE 12 G 25 10.00 Fair CLR 78.1 64.9 64% 80 29.94 1014.0
02 15:54 NE 12 G 28 10.00 Fair CLR 79 66 65% 81 29.94 1013.9
02 14:54 NE 15 G 26 10.00 Fair CLR 82 66 58% 84 29.94 1014.1
02 13:54 NE 12 G 26 10.00 Fair CLR 82 66 82.9 72 58% 84 29.96 1014.7
02 12:54 NE 14 G 30 10.00 Fair CLR 81 66 61% 83 29.99 1015.7
02 11:54 NE 16 G 29 10.00 Fair CLR 80.1 64.9 60% 82 30.01 1016.2
02 10:54 E 17 G 33 10.00 Fair CLR 80.1 64 58% 82 30.02 1016.9
02 09:54 NE 15 G 30 10.00 Fair CLR 78.1 64.9 64% 80 30.03 1017.0
02 08:54 E 18 G 30 10.00 Fair CLR 75.9 64.9 69% 78 30.02 1016.9
02 07:54 NE 10 G 25 6.00 Mostly Cloudy with Haze FEW016 SCT035 BKN046 72 66 73 70 82% 30.03 1017.0
02 06:54 NE 13 G 23 10.00 A Few Clouds FEW016 71.1 66 84% 30.02 1016.7
02 05:54 E 14 10.00 Fair CLR 70 64.9 84% 30 1016.1
Date Time (hst) Wind (mph) Vis. (mi.) Weather Sky Cond. Air Dwpt Max. Min. Relative Humidity Wind Chill (°F) Heat Index (°F) altimeter (in) sea level (mb) 1 hr 3 hr 6 hr
6 hour
Temperature (ºF) Pressure Precipitation (in)